Advance Mills, Virginia
Current Conditions -  °F | °C
As of 8:53 AM on Saturday 22 Nov 2014 (Local Time) from KCHO Reporting Station
Clear Clear  
Wind Chill: 20°   Ceiling: Unl
Heat Index: 28°   Visibility: 10mi
Dew Point: 14°   Wind: 8mph
Humidity: 56%   Direction: 200°SSW
Pressure: 30.48"   Gusts: NA
Location:  38.2469°N, 78.3926°W
Report Text: KCHO 221353Z 20007KT 10SM CLR M02/M10 A3048 RMK AO2 SLP325 T10221100
Loading
Personal Weather Stations






























Interactive Weather Map New forecast layout! Learn more

10-Day Weather Forecast

Advertisements
Track Severe Weather on mobile